sensor_id;sensor_type;location;lat;lon;timestamp;pressure;altitude;pressure_sealevel;temperature;humidity
46598;BME280;32318;48.858;8.252;2023-02-02T00:07:31;101109.84;;;4.84;83.83
46598;BME280;32318;48.858;8.252;2023-02-02T00:15:32;101113.44;;;4.83;83.46
46598;BME280;32318;48.858;8.252;2023-02-02T00:23:32;101120.41;;;4.84;83.53
46598;BME280;32318;48.858;8.252;2023-02-02T00:31:33;101116.81;;;4.85;83.72
46598;BME280;32318;48.858;8.252;2023-02-02T00:39:34;101135.22;;;4.86;83.14
46598;BME280;32318;48.858;8.252;2023-02-02T00:47:34;101134.53;;;4.84;83.95
46598;BME280;32318;48.858;8.252;2023-02-02T00:55:34;101123.69;;;4.87;82.96
46598;BME280;32318;48.858;8.252;2023-02-02T01:03:34;101139.38;;;4.91;83.18
46598;BME280;32318;48.858;8.252;2023-02-02T01:11:35;101130.38;;;4.93;83.22
46598;BME280;32318;48.858;8.252;2023-02-02T01:19:35;101120.53;;;4.82;85.32
46598;BME280;32318;48.858;8.252;2023-02-02T01:27:36;101114.63;;;4.79;85.37
46598;BME280;32318;48.858;8.252;2023-02-02T01:35:36;101135.66;;;4.80;85.00
46598;BME280;32318;48.858;8.252;2023-02-02T01:51:49;101128.66;;;4.79;85.07
46598;BME280;32318;48.858;8.252;2023-02-02T01:59:51;101127.53;;;4.83;85.00
46598;BME280;32318;48.858;8.252;2023-02-02T02:07:56;101125.94;;;4.81;85.46
46598;BME280;32318;48.858;8.252;2023-02-02T02:16:10;101122.44;;;4.80;84.85
46598;BME280;32318;48.858;8.252;2023-02-02T02:41:12;101129.72;;;4.64;88.14
46598;BME280;32318;48.858;8.252;2023-02-02T02:49:15;101135.50;;;4.56;89.02
46598;BME280;32318;48.858;8.252;2023-02-02T02:57:35;101134.56;;;4.57;88.41
46598;BME280;32318;48.858;8.252;2023-02-02T03:05:53;101130.16;;;4.58;88.47
46598;BME280;32318;48.858;8.252;2023-02-02T03:13:56;101128.44;;;4.57;87.94
46598;BME280;32318;48.858;8.252;2023-02-02T03:21:56;101133.72;;;4.57;87.25
46598;BME280;32318;48.858;8.252;2023-02-02T03:29:57;101139.66;;;4.60;87.04
46598;BME280;32318;48.858;8.252;2023-02-02T03:37:57;101139.66;;;4.60;87.05
46598;BME280;32318;48.858;8.252;2023-02-02T03:46:00;101142.41;;;4.59;87.54
46598;BME280;32318;48.858;8.252;2023-02-02T03:54:02;101138.78;;;4.60;86.52
46598;BME280;32318;48.858;8.252;2023-02-02T04:02:02;101145.06;;;4.59;86.97
46598;BME280;32318;48.858;8.252;2023-02-02T04:10:03;101146.66;;;4.61;86.76
46598;BME280;32318;48.858;8.252;2023-02-02T04:18:04;101143.69;;;4.66;85.43
46598;BME280;32318;48.858;8.252;2023-02-02T04:26:04;101160.50;;;4.65;86.47
46598;BME280;32318;48.858;8.252;2023-02-02T04:34:05;101149.75;;;4.68;85.84
46598;BME280;32318;48.858;8.252;2023-02-02T04:42:05;101153.41;;;4.65;86.15
46598;BME280;32318;48.858;8.252;2023-02-02T04:50:06;101169.50;;;4.62;86.93
46598;BME280;32318;48.858;8.252;2023-02-02T04:58:07;101178.47;;;4.60;86.48
46598;BME280;32318;48.858;8.252;2023-02-02T05:06:07;101169.69;;;4.59;86.40
46598;BME280;32318;48.858;8.252;2023-02-02T05:14:08;101191.50;;;4.63;85.90
46598;BME280;32318;48.858;8.252;2023-02-02T05:22:09;101201.03;;;4.65;85.99
46598;BME280;32318;48.858;8.252;2023-02-02T05:30:11;101214.16;;;4.67;85.76
46598;BME280;32318;48.858;8.252;2023-02-02T05:38:11;101207.94;;;4.68;85.58
46598;BME280;32318;48.858;8.252;2023-02-02T05:46:12;101231.75;;;4.68;86.16
46598;BME280;32318;48.858;8.252;2023-02-02T05:54:13;101222.00;;;4.68;86.14
46598;BME280;32318;48.858;8.252;2023-02-02T06:02:18;101231.94;;;4.65;86.69
46598;BME280;32318;48.858;8.252;2023-02-02T06:10:18;101233.06;;;4.61;87.20
46598;BME280;32318;48.858;8.252;2023-02-02T06:18:19;101235.06;;;4.57;87.45
46598;BME280;32318;48.858;8.252;2023-02-02T06:26:19;101241.41;;;4.54;88.03
46598;BME280;32318;48.858;8.252;2023-02-02T06:34:19;101234.41;;;4.53;87.90
46598;BME280;32318;48.858;8.252;2023-02-02T06:42:20;101238.88;;;4.53;88.28
46598;BME280;32318;48.858;8.252;2023-02-02T06:50:20;101244.25;;;4.51;87.98
46598;BME280;32318;48.858;8.252;2023-02-02T06:58:20;101234.41;;;4.53;87.56
46598;BME280;32318;48.858;8.252;2023-02-02T07:06:23;101243.88;;;4.58;87.54
46598;BME280;32318;48.858;8.252;2023-02-02T07:14:24;101238.56;;;4.58;87.27
46598;BME280;32318;48.858;8.252;2023-02-02T07:22:24;101231.19;;;4.63;87.18
46598;BME280;32318;48.858;8.252;2023-02-02T07:30:24;101236.91;;;4.69;86.21
46598;BME280;32318;48.858;8.252;2023-02-02T07:38:28;101242.75;;;4.75;86.24
46598;BME280;32318;48.858;8.252;2023-02-02T07:46:29;101254.84;;;4.79;86.13
46598;BME280;32318;48.858;8.252;2023-02-02T07:54:29;101259.91;;;4.82;85.85
46598;BME280;32318;48.858;8.252;2023-02-02T08:02:31;101237.47;;;4.87;85.66
46598;BME280;32318;48.858;8.252;2023-02-02T08:10:31;101221.53;;;4.89;85.42
46598;BME280;32318;48.858;8.252;2023-02-02T08:18:35;101253.63;;;4.97;84.80
46598;BME280;32318;48.858;8.252;2023-02-02T08:26:35;101285.91;;;5.02;84.56
46598;BME280;32318;48.858;8.252;2023-02-02T08:34:36;101295.44;;;5.05;84.66
46598;BME280;32318;48.858;8.252;2023-02-02T08:42:36;101327.19;;;5.05;84.87
46598;BME280;32318;48.858;8.252;2023-02-02T08:50:37;101319.06;;;5.08;85.32
46598;BME280;32318;48.858;8.252;2023-02-02T08:58:38;101317.16;;;5.10;85.11
46598;BME280;32318;48.858;8.252;2023-02-02T09:06:39;101325.00;;;5.12;84.56
46598;BME280;32318;48.858;8.252;2023-02-02T09:14:40;101336.34;;;5.14;84.41
46598;BME280;32318;48.858;8.252;2023-02-02T09:22:40;101330.81;;;5.17;84.29
46598;BME280;32318;48.858;8.252;2023-02-02T09:30:40;101327.34;;;5.16;84.18
46598;BME280;32318;48.858;8.252;2023-02-02T09:38:41;101339.41;;;5.21;84.75
46598;BME280;32318;48.858;8.252;2023-02-02T10:03:32;101358.09;;;5.32;84.67
46598;BME280;32318;48.858;8.252;2023-02-02T10:11:46;101348.78;;;5.39;85.33
46598;BME280;32318;48.858;8.252;2023-02-02T10:19:49;101344.03;;;5.44;85.41
46598;BME280;32318;48.858;8.252;2023-02-02T10:28:03;101364.91;;;5.49;84.72
46598;BME280;32318;48.858;8.252;2023-02-02T10:36:34;101379.31;;;5.58;84.88
46598;BME280;32318;48.858;8.252;2023-02-02T10:44:47;101371.72;;;5.66;84.20
46598;BME280;32318;48.858;8.252;2023-02-02T10:52:55;101357.19;;;5.85;84.16
46598;BME280;32318;48.858;8.252;2023-02-02T11:00:59;101343.13;;;6.10;83.74
46598;BME280;32318;48.858;8.252;2023-02-02T11:09:11;101343.75;;;6.26;83.14
46598;BME280;32318;48.858;8.252;2023-02-02T11:17:18;101356.97;;;6.39;82.28
46598;BME280;32318;48.858;8.252;2023-02-02T11:25:29;101355.25;;;6.51;81.15
46598;BME280;32318;48.858;8.252;2023-02-02T11:33:33;101386.53;;;6.59;81.32
46598;BME280;32318;48.858;8.252;2023-02-02T11:41:34;101371.25;;;6.63;80.88
46598;BME280;32318;48.858;8.252;2023-02-02T11:49:40;101381.31;;;6.70;80.81
46598;BME280;32318;48.858;8.252;2023-02-02T11:58:18;101365.91;;;6.75;80.38
46598;BME280;32318;48.858;8.252;2023-02-02T12:06:24;101360.38;;;6.79;80.14
46598;BME280;32318;48.858;8.252;2023-02-02T12:56:50;101340.31;;;6.99;78.32
46598;BME280;32318;48.858;8.252;2023-02-02T13:05:16;101352.97;;;6.95;77.94
46598;BME280;32318;48.858;8.252;2023-02-02T13:13:22;101360.72;;;6.98;78.10
46598;BME280;32318;48.858;8.252;2023-02-02T13:21:24;101348.41;;;6.97;77.84
46598;BME280;32318;48.858;8.252;2023-02-02T13:29:37;101353.09;;;6.94;77.41
46598;BME280;32318;48.858;8.252;2023-02-02T13:37:47;101365.41;;;6.95;77.74
46598;BME280;32318;48.858;8.252;2023-02-02T13:45:58;101365.28;;;6.96;78.18
46598;BME280;32318;48.858;8.252;2023-02-02T14:02:20;101367.44;;;6.91;77.01
46598;BME280;32318;48.858;8.252;2023-02-02T14:10:28;101390.25;;;6.94;77.31
46598;BME280;32318;48.858;8.252;2023-02-02T14:34:51;101392.69;;;6.97;76.21
46598;BME280;32318;48.858;8.252;2023-02-02T14:43:15;101390.66;;;7.00;76.18
46598;BME280;32318;48.858;8.252;2023-02-02T14:51:55;101388.50;;;7.05;76.60
46598;BME280;32318;48.858;8.252;2023-02-02T14:59:56;101392.03;;;7.06;75.35
46598;BME280;32318;48.858;8.252;2023-02-02T15:16:14;101419.91;;;7.12;75.91
46598;BME280;32318;48.858;8.252;2023-02-02T15:24:25;101425.84;;;7.15;75.26
46598;BME280;32318;48.858;8.252;2023-02-02T15:32:26;101447.09;;;7.15;75.96
46598;BME280;32318;48.858;8.252;2023-02-02T15:40:29;101449.03;;;7.13;76.22
46598;BME280;32318;48.858;8.252;2023-02-02T15:48:31;101475.19;;;7.06;76.60
46598;BME280;32318;48.858;8.252;2023-02-02T15:56:33;101470.94;;;7.04;76.66
46598;BME280;32318;48.858;8.252;2023-02-02T16:04:37;101494.72;;;7.05;76.84
46598;BME280;32318;48.858;8.252;2023-02-02T16:12:38;101496.72;;;7.15;75.72
46598;BME280;32318;48.858;8.252;2023-02-02T16:20:40;101518.47;;;7.20;76.12
46598;BME280;32318;48.858;8.252;2023-02-02T16:28:41;101531.34;;;7.26;76.11
46598;BME280;32318;48.858;8.252;2023-02-02T16:36:41;101554.28;;;7.27;75.78
46598;BME280;32318;48.858;8.252;2023-02-02T16:44:42;101574.59;;;7.28;75.50
46598;BME280;32318;48.858;8.252;2023-02-02T17:01:05;101588.41;;;7.20;74.69
46598;BME280;32318;48.858;8.252;2023-02-02T17:09:30;101596.50;;;7.19;74.98
46598;BME280;32318;48.858;8.252;2023-02-02T17:17:30;101608.16;;;7.16;74.16
46598;BME280;32318;48.858;8.252;2023-02-02T17:25:43;101616.13;;;7.16;74.82
46598;BME280;32318;48.858;8.252;2023-02-02T17:33:43;101625.16;;;7.14;74.94
46598;BME280;32318;48.858;8.252;2023-02-02T17:41:44;101620.09;;;7.11;75.46
46598;BME280;32318;48.858;8.252;2023-02-02T17:49:46;101630.28;;;7.04;75.78
46598;BME280;32318;48.858;8.252;2023-02-02T17:57:47;101635.59;;;7.04;76.21
46598;BME280;32318;48.858;8.252;2023-02-02T18:05:48;101628.78;;;7.00;75.82
46598;BME280;32318;48.858;8.252;2023-02-02T18:13:48;101634.09;;;7.00;76.13
46598;BME280;32318;48.858;8.252;2023-02-02T18:21:48;101643.75;;;7.01;76.13
46598;BME280;32318;48.858;8.252;2023-02-02T18:29:49;101645.78;;;6.97;76.47
46598;BME280;32318;48.858;8.252;2023-02-02T18:37:50;101670.00;;;6.93;76.92
46598;BME280;32318;48.858;8.252;2023-02-02T18:46:01;101658.72;;;6.89;77.43
46598;BME280;32318;48.858;8.252;2023-02-02T18:54:01;101658.94;;;6.86;77.28
46598;BME280;32318;48.858;8.252;2023-02-02T19:02:02;101660.88;;;6.84;77.24
46598;BME280;32318;48.858;8.252;2023-02-02T19:10:02;101665.41;;;6.82;77.07
46598;BME280;32318;48.858;8.252;2023-02-02T19:18:10;101653.22;;;6.79;76.83
46598;BME280;32318;48.858;8.252;2023-02-02T19:26:20;101649.59;;;6.80;77.05
46598;BME280;32318;48.858;8.252;2023-02-02T19:34:21;101640.66;;;6.81;76.96
46598;BME280;32318;48.858;8.252;2023-02-02T19:42:22;101633.69;;;6.80;76.69
46598;BME280;32318;48.858;8.252;2023-02-02T19:50:25;101652.34;;;6.79;76.28
46598;BME280;32318;48.858;8.252;2023-02-02T19:58:33;101643.84;;;6.73;76.10
46598;BME280;32318;48.858;8.252;2023-02-02T20:06:34;101660.63;;;6.74;76.61
46598;BME280;32318;48.858;8.252;2023-02-02T20:14:34;101653.84;;;6.70;76.46
46598;BME280;32318;48.858;8.252;2023-02-02T20:22:36;101659.97;;;6.70;76.68
46598;BME280;32318;48.858;8.252;2023-02-02T20:30:37;101651.69;;;6.62;76.83
46598;BME280;32318;48.858;8.252;2023-02-02T20:38:37;101651.69;;;6.62;77.47
46598;BME280;32318;48.858;8.252;2023-02-02T20:46:38;101662.50;;;6.59;77.42
46598;BME280;32318;48.858;8.252;2023-02-02T20:54:40;101667.09;;;6.57;77.77
46598;BME280;32318;48.858;8.252;2023-02-02T21:02:40;101661.22;;;6.52;78.12
46598;BME280;32318;48.858;8.252;2023-02-02T21:10:41;101666.81;;;6.47;78.48
46598;BME280;32318;48.858;8.252;2023-02-02T21:18:41;101678.81;;;6.40;79.46
46598;BME280;32318;48.858;8.252;2023-02-02T21:26:42;101680.69;;;6.38;78.95
46598;BME280;32318;48.858;8.252;2023-02-02T21:34:43;101666.06;;;6.32;79.94
46598;BME280;32318;48.858;8.252;2023-02-02T21:42:46;101663.50;;;6.31;79.88
46598;BME280;32318;48.858;8.252;2023-02-02T21:50:47;101665.50;;;6.27;80.53
46598;BME280;32318;48.858;8.252;2023-02-02T21:58:48;101666.38;;;6.27;79.78
46598;BME280;32318;48.858;8.252;2023-02-02T22:06:51;101678.09;;;6.23;81.04
46598;BME280;32318;48.858;8.252;2023-02-02T22:14:56;101650.19;;;6.18;81.38
46598;BME280;32318;48.858;8.252;2023-02-02T22:22:59;101655.59;;;6.16;81.06
46598;BME280;32318;48.858;8.252;2023-02-02T22:31:00;101670.88;;;6.12;81.75
46598;BME280;32318;48.858;8.252;2023-02-02T22:39:00;101660.91;;;6.16;81.54
46598;BME280;32318;48.858;8.252;2023-02-02T22:47:01;101655.78;;;6.13;81.97
46598;BME280;32318;48.858;8.252;2023-02-02T22:55:05;101649.84;;;6.09;81.81
46598;BME280;32318;48.858;8.252;2023-02-02T23:03:05;101660.66;;;6.06;82.00
46598;BME280;32318;48.858;8.252;2023-02-02T23:11:05;101674.88;;;6.05;82.75
46598;BME280;32318;48.858;8.252;2023-02-02T23:19:06;101680.06;;;6.07;82.34
46598;BME280;32318;48.858;8.252;2023-02-02T23:27:06;101690.97;;;6.02;83.22
46598;BME280;32318;48.858;8.252;2023-02-02T23:35:07;101701.47;;;6.04;82.66
46598;BME280;32318;48.858;8.252;2023-02-02T23:43:07;101718.53;;;6.00;83.20
46598;BME280;32318;48.858;8.252;2023-02-02T23:51:08;101724.66;;;6.00;82.99
46598;BME280;32318;48.858;8.252;2023-02-02T23:59:08;101714.06;;;6.00;83.00
